Time;durP1;ratioP1;P1;durP2;ratioP2;P2;SDS_P1;SDS_P2;PMS_P1;PMS_P2;Temp;Humidity;BMP_temperature;BMP_pressure;BME280_temperature;BME280_humidity;BME280_pressure;Samples;Min_cycle;Max_cycle;Signal;HPM_P1;HPM_P2
2022/10/12 00:00:47;;;;;;;;;;;6.70;99.90;;;;;;5101931;27;1288;-54
2022/10/12 00:03:26;;;;;;;;;;;6.60;99.90;;;;;;5081483;27;1342;-52
2022/10/12 00:06:06;;;;;;;;;;;6.60;99.90;;;;;;5083764;27;1617;-50
2022/10/12 00:08:46;;;;;;;;;;;6.60;99.90;;;;;;5104315;27;1192;-52
2022/10/12 00:11:26;;;;;;;;;;;6.60;99.90;;;;;;5104674;27;1531;-51
2022/10/12 00:14:05;;;;;;;;;;;6.50;99.90;;;;;;5105010;27;1536;-53
2022/10/12 00:16:43;;;;;;;;;;;6.50;99.90;;;;;;5099418;27;1877;-54
2022/10/12 00:19:21;;;;;;;;;;;6.40;99.90;;;;;;5089735;27;1466;-53
2022/10/12 00:21:59;;;;;;;;;;;6.50;99.90;;;;;;5102579;27;1608;-52
2022/10/12 00:24:37;;;;;;;;;;;6.40;99.90;;;;;;5089595;27;1517;-52
2022/10/12 00:27:16;;;;;;;;;;;6.40;99.90;;;;;;5104773;27;1280;-53
2022/10/12 00:29:54;;;;;;;;;;;6.40;99.90;;;;;;5104022;27;1841;-54
2022/10/12 00:32:32;;;;;;;;;;;6.30;99.90;;;;;;5105134;27;1308;-51
2022/10/12 00:35:10;;;;;;;;;;;6.30;99.90;;;;;;5084453;27;1327;-51
2022/10/12 00:37:48;;;;;;;;;;;6.30;99.90;;;;;;5104720;27;1296;-51
2022/10/12 00:40:27;;;;;;;;;;;6.20;99.90;;;;;;5104284;27;1667;-51
2022/10/12 00:43:18;;;;;;;;;;;6.10;99.90;;;;;;5105262;27;1295;-55
2022/10/12 00:45:59;;;;;;;;;;;6.20;99.90;;;;;;5100757;27;1579;-54
2022/10/12 00:48:38;;;;;;;;;;;6.20;99.90;;;;;;5086224;27;1719;-51
2022/10/12 00:51:19;;;;;;;;;;;6.30;99.90;;;;;;5103206;27;1531;-54
2022/10/12 00:54:00;;;;;;;;;;;6.30;99.90;;;;;;5105344;27;1261;-51
2022/10/12 00:56:40;;;;;;;;;;;6.40;99.90;;;;;;5104753;27;1382;-52
2022/10/12 00:59:21;;;;;;;;;;;6.30;99.90;;;;;;5101159;27;1610;-50
2022/10/12 01:02:00;;;;;;;;;;;6.30;99.90;;;;;;5082964;27;1376;-52
2022/10/12 01:04:38;;;;;;;;;;;6.30;99.90;;;;;;5090559;27;1389;-51
2022/10/12 01:07:27;;;;;;;;;;;6.30;99.90;;;;;;5098637;27;2176;-55
2022/10/12 01:10:06;;;;;;;;;;;6.30;99.90;;;;;;5099375;27;1408;-54
2022/10/12 01:12:46;;;;;;;;;;;6.20;99.90;;;;;;5095709;27;2247;-54
2022/10/12 01:15:28;;;;;;;;;;;6.30;99.90;;;;;;5097650;27;2872;-55
2022/10/12 01:18:09;;;;;;;;;;;6.20;99.90;;;;;;5097338;27;2104;-51
2022/10/12 01:20:58;;;;;;;;;;;6.10;99.90;;;;;;5102736;27;1841;-52
2022/10/12 01:23:46;;;;;;;;;;;5.90;99.90;;;;;;5103507;27;2011;-52
2022/10/12 01:26:34;;;;;;;;;;;5.90;99.90;;;;;;5098826;27;1555;-55
2022/10/12 01:29:19;;;;;;;;;;;5.90;99.90;;;;;;5102826;27;1277;-53
2022/10/12 01:31:59;;;;;;;;;;;5.90;99.90;;;;;;5103239;27;1537;-51
2022/10/12 01:34:43;;;;;;;;;;;5.80;99.90;;;;;;5104128;27;1410;-53
2022/10/12 01:37:25;;;;;;;;;;;5.70;99.90;;;;;;5103755;27;1695;-53
2022/10/12 01:40:07;;;;;;;;;;;5.60;99.90;;;;;;5103630;27;1216;-50
2022/10/12 01:42:47;;;;;;;;;;;5.60;99.90;;;;;;5104346;27;1292;-51
2022/10/12 01:45:27;;;;;;;;;;;5.70;99.90;;;;;;5103543;27;1537;-54
2022/10/12 01:48:06;;;;;;;;;;;5.70;99.90;;;;;;5088629;27;1820;-54
2022/10/12 01:50:48;;;;;;;;;;;5.80;99.90;;;;;;5101130;27;1285;-50
2022/10/12 01:53:32;;;;;;;;;;;5.80;99.90;;;;;;5103117;27;1386;-54
2022/10/12 01:56:16;;;;;;;;;;;5.80;99.90;;;;;;5103393;27;1250;-53
2022/10/12 01:58:57;;;;;;;;;;;5.80;99.90;;;;;;5103764;27;1233;-52
2022/10/12 02:01:39;;;;;;;;;;;5.80;99.90;;;;;;5104955;27;1394;-52
2022/10/12 02:04:22;;;;;;;;;;;5.90;99.90;;;;;;5074566;27;1351;-51
2022/10/12 02:07:02;;;;;;;;;;;6.00;99.90;;;;;;5099441;27;1591;-54
2022/10/12 02:09:41;;;;;;;;;;;6.00;99.90;;;;;;5102049;27;1326;-52
2022/10/12 02:12:22;;;;;;;;;;;6.00;99.90;;;;;;5098347;27;2009;-56
2022/10/12 02:15:03;;;;;;;;;;;5.90;99.90;;;;;;5089941;27;1386;-50
2022/10/12 02:17:43;;;;;;;;;;;5.80;99.90;;;;;;5102883;27;1259;-53
2022/10/12 02:20:23;;;;;;;;;;;5.80;99.90;;;;;;5103709;27;1538;-51
2022/10/12 02:23:24;;;;;;;;;;;5.80;99.90;;;;;;5081774;27;1390;-54
2022/10/12 02:26:03;;;;;;;;;;;5.70;99.90;;;;;;5098813;27;1598;-55
2022/10/12 02:28:43;;;;;;;;;;;5.70;99.90;;;;;;5102520;27;1304;-53
2022/10/12 02:31:28;;;;;;;;;;;5.70;99.90;;;;;;5103538;27;1381;-51
2022/10/12 02:34:10;;;;;;;;;;;5.70;99.90;;;;;;5096248;27;1333;-53
2022/10/12 02:36:50;;;;;;;;;;;5.70;99.90;;;;;;5084054;27;1925;-51
2022/10/12 02:39:32;;;;;;;;;;;5.70;99.90;;;;;;5103374;27;1255;-55
2022/10/12 02:42:12;;;;;;;;;;;5.70;99.90;;;;;;5064565;27;1308;-54
2022/10/12 02:44:51;;;;;;;;;;;5.70;99.90;;;;;;5084283;27;1277;-52
2022/10/12 02:47:32;;;;;;;;;;;5.70;99.90;;;;;;5098325;27;1554;-51
2022/10/12 02:50:11;;;;;;;;;;;5.60;99.90;;;;;;5102067;27;1326;-51
2022/10/12 02:52:51;;;;;;;;;;;5.60;99.90;;;;;;5093911;27;2279;-50
2022/10/12 02:55:31;;;;;;;;;;;5.60;99.90;;;;;;5062331;27;1336;-52
2022/10/12 02:58:10;;;;;;;;;;;5.50;99.90;;;;;;5104241;27;1309;-52
2022/10/12 03:00:48;;;;;;;;;;;5.60;99.90;;;;;;5103129;27;1402;-51
2022/10/12 03:03:26;;;;;;;;;;;5.60;99.90;;;;;;5101576;27;1755;-52
2022/10/12 03:06:05;;;;;;;;;;;5.50;99.90;;;;;;5100546;27;1590;-51
2022/10/12 03:08:44;;;;;;;;;;;5.50;99.90;;;;;;5099361;27;1720;-53
2022/10/12 03:11:23;;;;;;;;;;;5.60;99.90;;;;;;5103447;27;1364;-53
2022/10/12 03:14:03;;;;;;;;;;;5.70;99.90;;;;;;5084867;27;1617;-53
2022/10/12 03:16:41;;;;;;;;;;;5.70;99.90;;;;;;5103941;27;1742;-53
2022/10/12 03:19:21;;;;;;;;;;;5.70;99.90;;;;;;5104174;27;1388;-51
2022/10/12 03:21:59;;;;;;;;;;;5.70;99.90;;;;;;5100357;27;2249;-53
2022/10/12 03:24:37;;;;;;;;;;;5.80;99.90;;;;;;5100454;27;1316;-51
2022/10/12 03:27:15;;;;;;;;;;;5.80;99.90;;;;;;5103020;27;1688;-51
2022/10/12 03:29:53;;;;;;;;;;;5.90;99.90;;;;;;5104266;27;1741;-51
2022/10/12 03:32:32;;;;;;;;;;;5.90;99.90;;;;;;5105210;27;1234;-52
2022/10/12 03:35:10;;;;;;;;;;;6.10;99.90;;;;;;5104973;27;1280;-53
2022/10/12 03:37:48;;;;;;;;;;;6.10;99.90;;;;;;5085157;27;1959;-52
2022/10/12 03:40:26;;;;;;;;;;;6.20;99.90;;;;;;5102741;27;1518;-52
2022/10/12 03:43:05;;;;;;;;;;;6.30;99.90;;;;;;5105183;27;1754;-54
2022/10/12 03:45:43;;;;;;;;;;;6.50;99.90;;;;;;5084789;27;1465;-53
2022/10/12 03:48:21;;;;;;;;;;;6.60;99.90;;;;;;5105499;27;1561;-53
2022/10/12 03:50:59;;;;;;;;;;;6.70;99.90;;;;;;5103413;27;2680;-55
2022/10/12 03:53:38;;;;;;;;;;;6.80;99.90;;;;;;5104910;27;1459;-51
2022/10/12 03:56:16;;;;;;;;;;;6.90;99.90;;;;;;5103687;27;1584;-51
2022/10/12 03:58:54;;;;;;;;;;;7.00;99.90;;;;;;5104855;27;1375;-54
2022/10/12 04:01:32;;;;;;;;;;;7.10;99.90;;;;;;5105693;27;1228;-53
2022/10/12 04:04:11;;;;;;;;;;;7.10;99.90;;;;;;5105712;27;1478;-52
2022/10/12 04:06:50;;;;;;;;;;;7.20;99.90;;;;;;5097766;27;2210;-54
2022/10/12 04:09:28;;;;;;;;;;;7.30;99.90;;;;;;5104467;27;1256;-53
2022/10/12 04:12:07;;;;;;;;;;;7.30;99.90;;;;;;5106164;27;1329;-54
2022/10/12 04:14:45;;;;;;;;;;;7.40;99.90;;;;;;5091429;27;1820;-51
2022/10/12 04:17:23;;;;;;;;;;;7.40;99.90;;;;;;5079899;27;1985;-51
2022/10/12 04:20:01;;;;;;;;;;;7.40;99.90;;;;;;5104193;27;1582;-51
2022/10/12 04:22:40;;;;;;;;;;;7.40;99.90;;;;;;5084288;27;1408;-51
2022/10/12 04:25:18;;;;;;;;;;;7.40;99.90;;;;;;5096039;27;1721;-53
2022/10/12 04:27:56;;;;;;;;;;;7.40;99.90;;;;;;5061563;27;2061;-54
2022/10/12 04:30:34;;;;;;;;;;;7.50;99.90;;;;;;5103654;27;1665;-53
2022/10/12 04:33:13;;;;;;;;;;;7.50;99.90;;;;;;5084634;27;1629;-51
2022/10/12 04:35:51;;;;;;;;;;;7.50;99.90;;;;;;5105349;27;2038;-51
2022/10/12 04:38:29;;;;;;;;;;;7.40;99.90;;;;;;5104992;27;1327;-54
2022/10/12 04:41:07;;;;;;;;;;;7.40;99.90;;;;;;5099594;27;1913;-52
2022/10/12 04:43:46;;;;;;;;;;;7.30;99.90;;;;;;5085089;27;1454;-51
2022/10/12 04:46:24;;;;;;;;;;;7.20;99.90;;;;;;5099220;27;1979;-51
2022/10/12 04:49:02;;;;;;;;;;;7.10;99.90;;;;;;5103815;27;1434;-51
2022/10/12 04:51:40;;;;;;;;;;;7.00;99.90;;;;;;5084023;27;1378;-53
2022/10/12 04:54:18;;;;;;;;;;;6.80;99.90;;;;;;5099784;27;1355;-52
2022/10/12 04:56:57;;;;;;;;;;;6.70;99.90;;;;;;5104768;27;1281;-54
2022/10/12 04:59:35;;;;;;;;;;;6.50;99.90;;;;;;5083984;27;1387;-54
2022/10/12 05:02:13;;;;;;;;;;;6.30;99.90;;;;;;5105761;27;1618;-54
2022/10/12 05:04:52;;;;;;;;;;;6.10;99.90;;;;;;5105646;27;1392;-54
2022/10/12 05:07:31;;;;;;;;;;;6.10;99.90;;;;;;5098323;27;1571;-52
2022/10/12 05:10:10;;;;;;;;;;;5.90;99.90;;;;;;5104295;27;1292;-55
2022/10/12 05:12:49;;;;;;;;;;;5.80;99.90;;;;;;5103945;27;1238;-52
2022/10/12 05:15:27;;;;;;;;;;;5.70;99.90;;;;;;5105070;27;1866;-51
2022/10/12 05:18:06;;;;;;;;;;;5.80;99.90;;;;;;5106210;27;1487;-52
2022/10/12 05:20:44;;;;;;;;;;;6.00;99.90;;;;;;5084475;27;1527;-55
2022/10/12 05:23:24;;;;;;;;;;;6.20;99.90;;;;;;5101438;27;2019;-52
2022/10/12 05:26:02;;;;;;;;;;;6.50;99.90;;;;;;5099548;27;1874;-56
2022/10/12 05:28:40;;;;;;;;;;;6.60;99.90;;;;;;5104182;27;1236;-53
2022/10/12 05:31:18;;;;;;;;;;;6.70;99.90;;;;;;5063297;27;1727;-51
2022/10/12 05:33:57;;;;;;;;;;;6.90;99.90;;;;;;5098686;27;1355;-52
2022/10/12 05:36:35;;;;;;;;;;;7.00;99.90;;;;;;5084745;27;1234;-52
2022/10/12 05:39:13;;;;;;;;;;;7.00;99.90;;;;;;5105105;27;1212;-52
2022/10/12 05:41:53;;;;;;;;;;;7.10;99.90;;;;;;5126222;27;1292;-54
2022/10/12 05:44:31;;;;;;;;;;;7.10;99.90;;;;;;5105523;27;1402;-53
2022/10/12 05:47:10;;;;;;;;;;;7.20;99.90;;;;;;5099446;27;1593;-50
2022/10/12 05:49:48;;;;;;;;;;;7.20;99.90;;;;;;5103491;27;1165;-51
2022/10/12 05:52:26;;;;;;;;;;;7.20;99.90;;;;;;5104534;27;1988;-53
2022/10/12 05:55:04;;;;;;;;;;;7.20;99.90;;;;;;5048043;27;1393;-53
2022/10/12 05:57:44;;;;;;;;;;;7.20;99.90;;;;;;5105539;27;1498;-51
2022/10/12 06:00:22;;;;;;;;;;;7.20;99.90;;;;;;5100161;27;1798;-51
2022/10/12 06:03:00;;;;;;;;;;;7.20;99.90;;;;;;5095688;27;1868;-53
2022/10/12 06:05:39;;;;;;;;;;;7.20;99.90;;;;;;5105455;27;1897;-55
2022/10/12 06:08:17;;;;;;;;;;;7.10;99.90;;;;;;5086900;27;1775;-53
2022/10/12 06:10:55;;;;;;;;;;;7.20;99.90;;;;;;5106501;27;1405;-53
2022/10/12 06:13:33;;;;;;;;;;;7.20;99.90;;;;;;5106858;27;1297;-52
2022/10/12 06:16:11;;;;;;;;;;;7.30;99.90;;;;;;5082544;27;1844;-54
2022/10/12 06:18:50;;;;;;;;;;;7.30;99.90;;;;;;5075452;27;1320;-55
2022/10/12 06:21:28;;;;;;;;;;;7.40;99.90;;;;;;5098959;27;1398;-54
2022/10/12 06:24:08;;;;;;;;;;;7.40;99.90;;;;;;5097798;27;1467;-54
2022/10/12 06:26:48;;;;;;;;;;;7.50;99.90;;;;;;5082537;27;1624;-53
2022/10/12 06:29:26;;;;;;;;;;;7.50;99.90;;;;;;5105640;27;1804;-51
2022/10/12 06:32:04;;;;;;;;;;;7.60;99.90;;;;;;5084940;27;1578;-55
2022/10/12 06:34:42;;;;;;;;;;;7.60;99.90;;;;;;5093993;27;1392;-55
2022/10/12 06:37:20;;;;;;;;;;;7.50;99.90;;;;;;5108309;27;1304;-56
2022/10/12 06:39:59;;;;;;;;;;;7.50;99.90;;;;;;5104771;27;1939;-54
2022/10/12 06:42:37;;;;;;;;;;;7.40;99.90;;;;;;5105237;27;1292;-53
2022/10/12 06:45:17;;;;;;;;;;;7.40;99.90;;;;;;5105368;27;1515;-55
2022/10/12 06:47:55;;;;;;;;;;;7.50;99.90;;;;;;5107083;27;1292;-54
2022/10/12 06:50:34;;;;;;;;;;;7.50;99.90;;;;;;5105804;27;1407;-54
2022/10/12 06:53:13;;;;;;;;;;;7.50;99.90;;;;;;5087841;27;2088;-55
2022/10/12 06:55:51;;;;;;;;;;;7.40;99.90;;;;;;5105922;27;1452;-53
2022/10/12 06:58:29;;;;;;;;;;;7.30;99.90;;;;;;5106412;27;1628;-51
2022/10/12 07:01:09;;;;;;;;;;;7.30;99.90;;;;;;5106382;27;1285;-53
2022/10/12 07:03:48;;;;;;;;;;;7.30;99.90;;;;;;5101070;27;1307;-52
2022/10/12 07:06:26;;;;;;;;;;;7.30;99.90;;;;;;5106580;27;1292;-51
2022/10/12 07:09:04;;;;;;;;;;;7.40;99.90;;;;;;5106176;27;1298;-52
2022/10/12 07:11:44;;;;;;;;;;;7.40;99.90;;;;;;5106449;27;1454;-51
2022/10/12 07:14:24;;;;;;;;;;;7.50;99.90;;;;;;5095548;27;1391;-54
2022/10/12 07:17:02;;;;;;;;;;;7.50;99.90;;;;;;5106458;27;1704;-53
2022/10/12 07:19:40;;;;;;;;;;;7.60;99.90;;;;;;5085643;27;1282;-52
2022/10/12 07:22:18;;;;;;;;;;;7.60;99.90;;;;;;5106213;27;1747;-52
2022/10/12 07:24:57;;;;;;;;;;;7.60;99.90;;;;;;5099314;27;1406;-52
2022/10/12 07:27:35;;;;;;;;;;;7.80;99.90;;;;;;5106368;27;1565;-51
2022/10/12 07:30:13;;;;;;;;;;;8.00;99.90;;;;;;5106471;27;1397;-51
2022/10/12 07:32:55;;;;;;;;;;;8.10;99.90;;;;;;5106136;27;1432;-52
2022/10/12 07:35:34;;;;;;;;;;;8.10;99.90;;;;;;5118302;27;1252;-54
2022/10/12 07:38:12;;;;;;;;;;;8.20;99.90;;;;;;5106122;27;1401;-53
2022/10/12 07:40:51;;;;;;;;;;;8.20;99.90;;;;;;5065492;27;1924;-52
2022/10/12 07:43:30;;;;;;;;;;;8.20;99.90;;;;;;5106214;27;1462;-55
2022/10/12 07:46:09;;;;;;;;;;;8.20;99.90;;;;;;5106555;27;1307;-55
2022/10/12 07:48:47;;;;;;;;;;;8.20;99.90;;;;;;5085267;27;1307;-53
2022/10/12 07:51:25;;;;;;;;;;;8.30;99.90;;;;;;5081123;27;1685;-55
2022/10/12 07:54:04;;;;;;;;;;;8.40;99.90;;;;;;5060490;27;1395;-53
2022/10/12 07:56:42;;;;;;;;;;;8.50;99.90;;;;;;5105667;27;1356;-56
2022/10/12 07:59:20;;;;;;;;;;;8.60;99.90;;;;;;5106428;27;1417;-54
2022/10/12 08:01:58;;;;;;;;;;;8.80;99.90;;;;;;5086127;27;1287;-52
2022/10/12 08:04:36;;;;;;;;;;;8.90;99.90;;;;;;5089035;27;2034;-52
2022/10/12 08:07:15;;;;;;;;;;;9.30;99.90;;;;;;5106410;27;1283;-52
2022/10/12 08:09:53;;;;;;;;;;;9.60;99.90;;;;;;5105429;27;1943;-52
2022/10/12 08:12:33;;;;;;;;;;;10.00;99.90;;;;;;5100776;27;1984;-51
2022/10/12 08:15:13;;;;;;;;;;;10.30;99.90;;;;;;5088587;27;1513;-62
2022/10/12 08:17:52;;;;;;;;;;;10.40;99.90;;;;;;5106557;27;1678;-55
2022/10/12 08:20:31;;;;;;;;;;;10.70;99.90;;;;;;5086170;27;1370;-55
2022/10/12 08:23:09;;;;;;;;;;;11.00;99.90;;;;;;5107138;27;1299;-52
2022/10/12 08:25:52;;;;;;;;;;;11.20;99.90;;;;;;5102140;27;2045;-51
2022/10/12 08:28:32;;;;;;;;;;;11.40;99.90;;;;;;5105450;27;1369;-53
2022/10/12 08:31:11;;;;;;;;;;;11.70;99.90;;;;;;5105631;27;1579;-55
2022/10/12 08:33:50;;;;;;;;;;;12.00;99.90;;;;;;5100202;27;1858;-52
2022/10/12 08:36:28;;;;;;;;;;;12.40;99.90;;;;;;5106887;27;1223;-53
2022/10/12 08:39:07;;;;;;;;;;;12.70;99.90;;;;;;5106769;27;1304;-54
2022/10/12 08:41:52;;;;;;;;;;;13.20;99.90;;;;;;5100458;27;2736;-52
2022/10/12 08:44:40;;;;;;;;;;;13.60;99.90;;;;;;5104972;27;1661;-55
2022/10/12 08:47:21;;;;;;;;;;;14.00;99.90;;;;;;5103011;27;2174;-54
2022/10/12 08:50:02;;;;;;;;;;;14.30;99.90;;;;;;5105444;27;1505;-52
2022/10/12 08:52:45;;;;;;;;;;;14.50;99.90;;;;;;5106742;27;1434;-51
2022/10/12 08:55:34;;;;;;;;;;;14.70;99.90;;;;;;5100138;27;1403;-51
2022/10/12 08:58:15;;;;;;;;;;;14.90;99.90;;;;;;5106731;27;1741;-53
2022/10/12 09:00:57;;;;;;;;;;;14.80;99.90;;;;;;5065715;27;1364;-51
2022/10/12 09:03:39;;;;;;;;;;;14.70;99.90;;;;;;5106627;27;1381;-54
2022/10/12 09:06:19;;;;;;;;;;;14.80;99.90;;;;;;5086416;27;1385;-52
2022/10/12 09:09:02;;;;;;;;;;;15.00;99.90;;;;;;5086106;27;1297;-51
2022/10/12 09:11:50;;;;;;;;;;;15.30;99.90;;;;;;5106872;27;1357;-51
2022/10/12 09:14:30;;;;;;;;;;;15.50;99.90;;;;;;5075158;27;1297;-53
2022/10/12 09:17:21;;;;;;;;;;;15.80;99.90;;;;;;5079762;27;1700;-54
2022/10/12 09:20:02;;;;;;;;;;;16.20;99.90;;;;;;5104733;27;1454;-52
2022/10/12 09:22:42;;;;;;;;;;;16.60;99.90;;;;;;5105389;27;1398;-52
2022/10/12 09:25:23;;;;;;;;;;;16.80;99.90;;;;;;5087218;27;1467;-50
2022/10/12 09:28:11;;;;;;;;;;;16.90;99.90;;;;;;5086467;27;1394;-52
2022/10/12 09:30:59;;;;;;;;;;;17.00;99.90;;;;;;5101463;27;1663;-50
2022/10/12 09:33:40;;;;;;;;;;;17.10;99.90;;;;;;5093414;27;1774;-52
2022/10/12 09:36:20;;;;;;;;;;;17.10;99.90;;;;;;5105143;27;1481;-53
2022/10/12 09:39:00;;;;;;;;;;;17.00;99.90;;;;;;5106496;27;1261;-53
2022/10/12 09:41:40;;;;;;;;;;;16.70;99.90;;;;;;5107057;27;1241;-51
2022/10/12 09:44:23;;;;;;;;;;;16.60;99.90;;;;;;5105914;27;1286;-51
2022/10/12 09:47:03;;;;;;;;;;;16.50;99.90;;;;;;5124015;22;1834;-58
2022/10/12 09:49:43;;;;;;;;;;;16.30;99.90;;;;;;5084292;27;1277;-60
2022/10/12 09:52:22;;;;;;;;;;;16.10;99.90;;;;;;5105782;27;1776;-56
2022/10/12 09:55:03;;;;;;;;;;;16.00;99.90;;;;;;5084860;27;1458;-56
2022/10/12 09:57:42;;;;;;;;;;;15.80;99.90;;;;;;5084441;27;1205;-57
2022/10/12 10:00:25;;;;;;;;;;;15.50;99.90;;;;;;5098715;27;1552;-57
2022/10/12 10:03:04;;;;;;;;;;;15.30;99.90;;;;;;5095226;27;1688;-56
2022/10/12 10:05:42;;;;;;;;;;;15.20;99.90;;;;;;5097246;27;1871;-56
2022/10/12 10:08:21;;;;;;;;;;;15.30;99.90;;;;;;5105216;27;1537;-56
2022/10/12 10:11:01;;;;;;;;;;;15.30;99.90;;;;;;5064811;27;1179;-56
2022/10/12 10:13:44;;;;;;;;;;;15.30;99.90;;;;;;5102877;27;1941;-56
2022/10/12 10:16:24;;;;;;;;;;;15.20;99.90;;;;;;5102502;27;1765;-60
2022/10/12 10:19:03;;;;;;;;;;;15.30;99.90;;;;;;5102333;27;1482;-60
2022/10/12 10:21:41;;;;;;;;;;;15.20;99.90;;;;;;5082929;27;1465;-59
2022/10/12 10:24:23;;;;;;;;;;;15.10;99.90;;;;;;5082655;27;1256;-60
2022/10/12 10:27:02;;;;;;;;;;;15.10;99.90;;;;;;5087706;27;1365;-57
2022/10/12 10:29:42;;;;;;;;;;;15.10;99.90;;;;;;5067541;27;1432;-57
2022/10/12 10:32:27;;;;;;;;;;;15.10;99.90;;;;;;5084760;27;1302;-56
2022/10/12 10:35:18;;;;;;;;;;;15.20;99.90;;;;;;5120370;27;1813;-58
2022/10/12 10:37:57;;;;;;;;;;;15.20;99.90;;;;;;5104081;27;1471;-56
2022/10/12 10:40:36;;;;;;;;;;;15.30;99.90;;;;;;5103591;27;1389;-58
2022/10/12 10:43:19;;;;;;;;;;;15.30;99.90;;;;;;5105319;27;1304;-57
2022/10/12 10:45:59;;;;;;;;;;;15.40;99.90;;;;;;5084714;27;1531;-56
2022/10/12 10:48:49;;;;;;;;;;;15.50;99.90;;;;;;5102101;27;1616;-57
2022/10/12 10:51:42;;;;;;;;;;;15.50;99.90;;;;;;5103812;27;1241;-58
2022/10/12 10:54:26;;;;;;;;;;;15.50;99.90;;;;;;5099224;27;1768;-57
2022/10/12 10:57:06;;;;;;;;;;;15.60;99.90;;;;;;5066159;27;1649;-56
2022/10/12 10:59:47;;;;;;;;;;;15.50;99.90;;;;;;5102063;27;1414;-60
2022/10/12 11:02:29;;;;;;;;;;;15.50;99.90;;;;;;5087428;27;1888;-56
2022/10/12 11:05:12;;;;;;;;;;;15.50;99.90;;;;;;5104696;27;1634;-60
2022/10/12 11:07:53;;;;;;;;;;;15.50;99.90;;;;;;5102793;27;1795;-60
2022/10/12 11:10:34;;;;;;;;;;;15.60;99.90;;;;;;5103970;27;1506;-56
2022/10/12 11:13:16;;;;;;;;;;;15.70;99.90;;;;;;5104121;27;1459;-56
2022/10/12 11:15:58;;;;;;;;;;;15.80;99.90;;;;;;5088979;27;1727;-58
2022/10/12 11:18:39;;;;;;;;;;;16.00;99.90;;;;;;5103414;27;1234;-60
2022/10/12 11:21:20;;;;;;;;;;;16.10;99.90;;;;;;5102675;27;1582;-56
2022/10/12 11:24:03;;;;;;;;;;;16.10;99.90;;;;;;5101509;27;1218;-58
2022/10/12 11:26:45;;;;;;;;;;;16.20;99.90;;;;;;5103255;27;1371;-56
2022/10/12 11:29:23;;;;;;;;;;;16.20;99.90;;;;;;5104234;27;1481;-56
2022/10/12 11:32:03;;;;;;;;;;;16.20;99.90;;;;;;5084563;27;1658;-56
2022/10/12 11:34:47;;;;;;;;;;;16.30;99.90;;;;;;5079835;27;1827;-58
2022/10/12 11:37:31;;;;;;;;;;;16.20;99.90;;;;;;5090990;27;1521;-56
2022/10/12 11:40:17;;;;;;;;;;;16.20;99.90;;;;;;5082986;27;1234;-60
2022/10/12 11:42:57;;;;;;;;;;;16.10;99.90;;;;;;5090871;27;1775;-58
2022/10/12 11:45:37;;;;;;;;;;;16.00;99.90;;;;;;5079035;27;1556;-58
2022/10/12 11:48:18;;;;;;;;;;;15.90;99.90;;;;;;5084567;27;1262;-58
2022/10/12 11:50:58;;;;;;;;;;;16.00;99.90;;;;;;5104762;27;1370;-57
2022/10/12 11:53:41;;;;;;;;;;;16.00;99.90;;;;;;5104629;27;1330;-59
2022/10/12 11:56:22;;;;;;;;;;;16.00;99.90;;;;;;5105211;27;1601;-59
2022/10/12 11:59:02;;;;;;;;;;;16.00;99.90;;;;;;5104500;27;1606;-57
2022/10/12 12:01:46;;;;;;;;;;;16.10;99.90;;;;;;5083851;27;1677;-60
2022/10/12 12:04:31;;;;;;;;;;;16.10;99.90;;;;;;5102071;27;1987;-58
2022/10/12 12:07:24;;;;;;;;;;;16.20;99.90;;;;;;5066682;27;2266;-57
2022/10/12 12:10:23;;;;;;;;;;;16.30;99.90;;;;;;5064305;27;1640;-56
2022/10/12 12:13:18;;;;;;;;;;;16.30;99.90;;;;;;5082570;27;1899;-56
2022/10/12 12:16:19;;;;;;;;;;;16.30;99.90;;;;;;5097561;27;1660;-56
2022/10/12 12:19:23;;;;;;;;;;;16.30;99.90;;;;;;5084180;27;1560;-57
2022/10/12 12:22:27;;;;;;;;;;;16.20;99.90;;;;;;5064427;27;1649;-55
2022/10/12 12:25:19;;;;;;;;;;;16.30;99.90;;;;;;5101244;27;1899;-56
2022/10/12 12:27:59;;;;;;;;;;;16.30;99.90;;;;;;5084067;27;1738;-56
2022/10/12 12:30:39;;;;;;;;;;;16.30;99.90;;;;;;5084972;27;1569;-56
2022/10/12 12:33:27;;;;;;;;;;;16.30;99.90;;;;;;5102385;27;1297;-56
2022/10/12 12:36:07;;;;;;;;;;;16.30;99.90;;;;;;5096079;27;1287;-56
2022/10/12 12:38:50;;;;;;;;;;;16.30;99.90;;;;;;5123094;27;2035;-56
2022/10/12 12:41:44;;;;;;;;;;;16.30;99.90;;;;;;5107065;27;1575;-56
2022/10/12 12:44:40;;;;;;;;;;;16.30;99.90;;;;;;5108123;27;1628;-55
2022/10/12 12:47:36;;;;;;;;;;;16.30;99.90;;;;;;5101436;27;1960;-53
2022/10/12 12:50:40;;;;;;;;;;;16.30;99.90;;;;;;5107444;27;1444;-56
2022/10/12 12:53:21;;;;;;;;;;;16.30;99.90;;;;;;5107576;27;1302;-55
2022/10/12 12:56:05;;;;;;;;;;;16.30;99.90;;;;;;5122170;27;1344;-56
2022/10/12 12:58:51;;;;;;;;;;;16.20;99.90;;;;;;5108249;27;1696;-56
2022/10/12 13:01:41;;;;;;;;;;;16.30;99.90;;;;;;5107640;27;1407;-56
2022/10/12 13:04:29;;;;;;;;;;;16.20;99.90;;;;;;5101417;27;1673;-55
2022/10/12 13:07:18;;;;;;;;;;;16.20;99.90;;;;;;5105348;27;1575;-56
2022/10/12 13:10:08;;;;;;;;;;;16.10;99.90;;;;;;5106963;27;1301;-56
2022/10/12 13:13:03;;;;;;;;;;;15.90;99.90;;;;;;5087177;27;1171;-56
2022/10/12 13:15:52;;;;;;;;;;;15.70;99.90;;;;;;5100356;27;1569;-55
2022/10/12 13:18:46;;;;;;;;;;;15.60;99.90;;;;;;5106457;27;1247;-56
2022/10/12 13:21:28;;;;;;;;;;;15.50;99.90;;;;;;5107644;27;1393;-54
2022/10/12 13:24:13;;;;;;;;;;;15.40;99.90;;;;;;5106846;27;1292;-55
2022/10/12 13:26:55;;;;;;;;;;;15.40;99.90;;;;;;5108224;27;1320;-55
2022/10/12 13:29:36;;;;;;;;;;;15.40;99.90;;;;;;5108096;27;1697;-56
2022/10/12 13:32:19;;;;;;;;;;;15.60;99.90;;;;;;5107923;27;1301;-55
2022/10/12 13:35:01;;;;;;;;;;;15.90;99.90;;;;;;5103650;27;1888;-56
2022/10/12 13:37:39;;;;;;;;;;;16.10;99.90;;;;;;5088100;27;1364;-55
2022/10/12 13:40:28;;;;;;;;;;;16.30;99.90;;;;;;5107588;27;1527;-55
2022/10/12 13:43:26;;;;;;;;;;;16.30;99.90;;;;;;5108184;27;1257;-55
2022/10/12 13:46:06;;;;;;;;;;;16.40;99.90;;;;;;5098831;27;1342;-55
2022/10/12 13:48:49;;;;;;;;;;;16.50;99.90;;;;;;5107366;27;1236;-55
2022/10/12 13:51:29;;;;;;;;;;;16.60;99.90;;;;;;5108640;27;1301;-55
2022/10/12 13:54:15;;;;;;;;;;;16.70;99.90;;;;;;5103516;27;1585;-52
2022/10/12 13:56:55;;;;;;;;;;;16.80;99.90;;;;;;5072398;27;1557;-54
2022/10/12 13:59:37;;;;;;;;;;;16.90;99.90;;;;;;5085972;27;1493;-54
2022/10/12 14:02:18;;;;;;;;;;;16.90;99.90;;;;;;5106888;27;1516;-55
2022/10/12 14:04:58;;;;;;;;;;;16.90;99.90;;;;;;5108998;27;1301;-54
2022/10/12 14:07:38;;;;;;;;;;;16.90;99.90;;;;;;5108526;27;1401;-55
2022/10/12 14:10:19;;;;;;;;;;;16.90;99.90;;;;;;5108465;27;1772;-55
2022/10/12 14:12:57;;;;;;;;;;;16.80;99.90;;;;;;5105284;27;1662;-55
2022/10/12 14:15:38;;;;;;;;;;;16.70;99.90;;;;;;5102591;27;1398;-53
2022/10/12 14:18:33;;;;;;;;;;;16.60;99.90;;;;;;5087724;27;1758;-55
2022/10/12 14:21:15;;;;;;;;;;;16.50;99.90;;;;;;5106005;27;1347;-55
2022/10/12 14:23:55;;;;;;;;;;;16.40;99.90;;;;;;5106424;27;1292;-54
2022/10/12 14:26:37;;;;;;;;;;;16.30;99.90;;;;;;5092121;27;2097;-55
2022/10/12 14:29:35;;;;;;;;;;;16.30;99.90;;;;;;5086345;27;1306;-55
2022/10/12 14:32:46;;;;;;;;;;;16.10;99.90;;;;;;5126648;27;1386;-54
2022/10/12 14:35:26;;;;;;;;;;;15.80;99.90;;;;;;5100115;27;2172;-54
2022/10/12 14:38:24;;;;;;;;;;;15.60;99.90;;;;;;5101952;27;1983;-55
2022/10/12 14:41:17;;;;;;;;;;;15.40;99.90;;;;;;5106500;27;1943;-54
2022/10/12 14:44:12;;;;;;;;;;;15.20;99.90;;;;;;5108550;27;1217;-55
2022/10/12 14:46:52;;;;;;;;;;;14.90;99.90;;;;;;5092981;27;1251;-55
2022/10/12 14:49:37;;;;;;;;;;;14.70;99.90;;;;;;5108383;27;1301;-55
2022/10/12 14:52:19;;;;;;;;;;;14.50;99.90;;;;;;5102524;27;2018;-56
2022/10/12 14:54:58;;;;;;;;;;;14.30;99.90;;;;;;5068495;27;1573;-56
2022/10/12 14:57:38;;;;;;;;;;;14.00;99.90;;;;;;5106029;27;2031;-56
2022/10/12 15:00:19;;;;;;;;;;;13.90;99.90;;;;;;5107612;27;2140;-57
2022/10/12 15:02:57;;;;;;;;;;;13.70;99.90;;;;;;5107162;27;1645;-56
2022/10/12 15:05:37;;;;;;;;;;;13.70;99.90;;;;;;5085625;27;1949;-56
2022/10/12 15:08:15;;;;;;;;;;;13.60;99.90;;;;;;5061143;27;1898;-55
2022/10/12 15:10:53;;;;;;;;;;;13.60;99.90;;;;;;5106460;27;1728;-54
2022/10/12 15:13:32;;;;;;;;;;;13.70;99.90;;;;;;5108022;27;1248;-54
2022/10/12 15:16:15;;;;;;;;;;;13.70;99.90;;;;;;5078070;27;1448;-55
2022/10/12 15:18:54;;;;;;;;;;;13.70;99.90;;;;;;5107188;27;1990;-55
2022/10/12 15:21:33;;;;;;;;;;;13.60;99.90;;;;;;5107888;27;1378;-56
2022/10/12 15:24:14;;;;;;;;;;;13.60;99.90;;;;;;5104387;27;1844;-56
2022/10/12 15:26:52;;;;;;;;;;;13.50;99.90;;;;;;5068278;27;2105;-55
2022/10/12 15:29:31;;;;;;;;;;;13.50;99.90;;;;;;5100103;27;1347;-55
2022/10/12 15:32:09;;;;;;;;;;;13.40;99.90;;;;;;5107599;27;1593;-55
2022/10/12 15:34:49;;;;;;;;;;;13.30;99.90;;;;;;5108309;27;1286;-56
2022/10/12 15:37:30;;;;;;;;;;;13.10;99.90;;;;;;5087711;27;1479;-55
2022/10/12 15:40:10;;;;;;;;;;;13.00;99.90;;;;;;5087829;27;1694;-55
2022/10/12 15:42:50;;;;;;;;;;;12.70;99.90;;;;;;5103998;27;2328;-55
2022/10/12 15:45:30;;;;;;;;;;;12.50;99.90;;;;;;5100828;27;2215;-55
2022/10/12 15:48:10;;;;;;;;;;;12.40;99.90;;;;;;5106601;22;3806;-53
2022/10/12 15:50:49;;;;;;;;;;;12.20;99.90;;;;;;5106439;27;1292;-53
2022/10/12 15:53:27;;;;;;;;;;;12.00;99.90;;;;;;5107359;27;1209;-53
2022/10/12 15:56:06;;;;;;;;;;;11.80;99.90;;;;;;5104139;27;1547;-53
2022/10/12 15:58:46;;;;;;;;;;;11.50;99.90;;;;;;5105905;27;1242;-53